Panguilemo Airport


Codes: SCTL/TLX
Name: Panguilemo Airport
City: Talca
Country: Chile
Elevation: 371 ft.

Photos at Panguilemo Airport


   Photos courtesy of SpottingLog. You can add your own sightings and photos by signing up for a free trial today.



No photos found.

Weather at Panguilemo Airport


Time (UTC)DescriptionTempratureWindCloud coverageVisibilityPressureHumidity
21-Feb-2024 03:00Clear Sky16°C4 mph, W0%10000m1015hPa75%
21-Feb-2024 06:00Clear Sky15°C2 mph, W0%10000m1015hPa79%
21-Feb-2024 09:00Clear Sky14°C2 mph, N0%10000m1015hPa85%
21-Feb-2024 12:00Clear Sky17°C4 mph, N2%10000m1015hPa73%
21-Feb-2024 15:00Clear Sky25°C9 mph, NW7%10000m1014hPa43%
21-Feb-2024 18:00Clear Sky29°C13 mph, NW8%10000m1012hPa28%
21-Feb-2024 21:00Clear Sky27°C13 mph, NW3%10000m1012hPa32%
22-Feb-2024 00:00Clear Sky18°C7 mph, W3%10000m1014hPa57%
22-Feb-2024 03:00Clear Sky14°C4 mph, SW5%10000m1016hPa73%
22-Feb-2024 06:00Clear Sky12°C0 mph, S3%10000m1016hPa86%
22-Feb-2024 09:00Scattered Clouds11°C2 mph, N44%10000m1015hPa89%
22-Feb-2024 12:00Scattered Clouds15°C2 mph, NE36%10000m1018hPa71%
22-Feb-2024 15:00Overcast Clouds22°C4 mph, NW90%10000m1018hPa42%
22-Feb-2024 18:00Overcast Clouds23°C13 mph, W93%10000m1018hPa41%
22-Feb-2024 21:00Overcast Clouds22°C4 mph, S95%10000m1018hPa46%
23-Feb-2024 00:00Broken Clouds17°C7 mph, SW63%10000m1018hPa59%
23-Feb-2024 03:00Clear Sky14°C7 mph, SW0%10000m1019hPa72%
23-Feb-2024 06:00Clear Sky12°C4 mph, SW0%10000m1017hPa84%
23-Feb-2024 09:00Clear Sky10°C4 mph, S0%10000m1017hPa90%
23-Feb-2024 12:00Clear Sky13°C7 mph, S0%10000m1018hPa68%
23-Feb-2024 15:00Clear Sky22°C9 mph, SW0%10000m1017hPa34%
23-Feb-2024 18:00Clear Sky29°C7 mph, SW0%10000m1014hPa21%
23-Feb-2024 21:00Clear Sky31°C7 mph, W0%10000m1012hPa16%
24-Feb-2024 00:00Clear Sky22°C4 mph, SW0%10000m1013hPa30%
24-Feb-2024 03:00Clear Sky17°C4 mph, SW0%10000m1015hPa46%
24-Feb-2024 06:00Clear Sky14°C4 mph, S0%10000m1015hPa59%
24-Feb-2024 09:00Clear Sky12°C4 mph, S0%10000m1015hPa67%
24-Feb-2024 12:00Few Clouds15°C4 mph, S20%10000m1016hPa56%
24-Feb-2024 15:00Few Clouds25°C9 mph, SW17%10000m1015hPa26%
24-Feb-2024 18:00Broken Clouds32°C7 mph, SW52%10000m1013hPa17%
24-Feb-2024 21:00Broken Clouds33°C7 mph, SW73%10000m1011hPa14%
25-Feb-2024 00:00Scattered Clouds23°C4 mph, SW46%10000m1012hPa22%
25-Feb-2024 03:00Clear Sky18°C7 mph, SW10%10000m1013hPa33%
25-Feb-2024 06:00Clear Sky15°C4 mph, S5%10000m1013hPa45%
25-Feb-2024 09:00Clear Sky13°C4 mph, S0%10000m1014hPa54%
25-Feb-2024 12:00Clear Sky16°C4 mph, S0%10000m1015hPa48%
25-Feb-2024 15:00Clear Sky25°C7 mph, SW0%10000m1015hPa23%
25-Feb-2024 18:00Clear Sky32°C9 mph, SW0%10000m1014hPa14%
25-Feb-2024 21:00Clear Sky33°C7 mph, SW0%10000m1012hPa12%
26-Feb-2024 00:00Clear Sky23°C7 mph, SW3%10000m1013hPa26%